PWSweather.com
Personal Weather Stations
Station Observations
KCOGRAND2
Redlands, Southcamp Road & Dakota Circle, Grand Junction, CO 81507

Redlands, Southcamp Road & Dakota CircleGrand Junction, CO 81507

Lat: 39.055, Lon: -108.637

Elevation: 4870

Station Type: RadioShack WX200

Latest ConditionsUpdated 9:16:50 AM MST Friday, Nov 21, 2014
Currently Today's Max Today's Min Today's Average
Temperature 36.7°F2.6°C 36.7°F2.6°C 24.6°F-4.1°C 29.5°F-1.4°C
Dew Point 14.0°F-10.0°C 16.9°F-8.4°C 7.7°F-13.5°C 11.3°F-11.5°C
Winds 3.0 mph WSW4.8 kmh WSW 4.0 mph SSE6.4 kmh SSE - 0.8 mph 1.3 kmh
Wind Gusts 4.9 mph7.9 kmh 5.4 mph8.7 kmh - -
Humidity 39% 54% 33% 46%
Pressure 25.13 in851.0 mb 25.13 in851.0 mb 25.07 in849.0 mb -
Hour Temp Dew Point Humidity Winds Wind Gusts Pressure Precip Precip Rate Daily Precip Total
09:16 AM 36.7°F2.6°C 14.0°F-10.0°C 39% 3.0 mph WSW4.8 kmh WSW 4.9 mph7.9 kmh 25.13 in851.0 mb 0.00 in0.0 mm 0.00 in/hr0.0 mm/hr 0.00 in0.0 mm
09:11 AM 36.5°F2.5°C 14.5°F-9.7°C 40% 2.0 mph WSW3.2 kmh WSW 4.9 mph7.9 kmh 25.13 in851.0 mb 0.00 in0.0 mm 0.00 in/hr0.0 mm/hr 0.00 in0.0 mm
09:06 AM 36.7°F2.6°C 15.8°F-9.0°C 42% 1.0 mph WSW1.6 kmh WSW 3.6 mph5.8 kmh 25.13 in851.0 mb 0.00 in0.0 mm 0.00 in/hr0.0 mm/hr 0.00 in0.0 mm
09:01 AM 35.1°F1.7°C 14.4°F-9.8°C 42% Calm Calm 3.6 mph5.8 kmh 25.13 in851.0 mb 0.00 in0.0 mm 0.00 in/hr0.0 mm/hr 0.00 in0.0 mm
08:56 AM 34.5°F1.4°C 16.9°F-8.4°C 48% Calm Calm 3.1 mph5.0 kmh 25.13 in851.0 mb 0.00 in0.0 mm 0.00 in/hr0.0 mm/hr 0.00 in0.0 mm
08:51 AM 32.4°F0.2°C 15.4°F-9.2°C 49% 1.0 mph WSW1.6 kmh WSW 3.1 mph5.0 kmh 25.13 in851.0 mb 0.00 in0.0 mm 0.00 in/hr0.0 mm/hr 0.00 in0.0 mm
08:46 AM 31.5°F-0.3°C 14.5°F-9.7°C 49% 2.0 mph WSW3.2 kmh WSW 3.6 mph5.8 kmh 25.13 in851.0 mb 0.00 in0.0 mm 0.00 in/hr0.0 mm/hr 0.00 in0.0 mm
08:41 AM 31.1°F-0.5°C 14.7°F-9.6°C 50% 2.0 mph WSW3.2 kmh WSW 5.4 mph8.7 kmh 25.13 in851.0 mb 0.00 in0.0 mm 0.00 in/hr0.0 mm/hr 0.00 in0.0 mm
08:36 AM 31.1°F-0.5°C 14.7°F-9.6°C 50% 1.0 mph WSW1.6 kmh WSW 5.4 mph8.7 kmh 25.10 in850.0 mb 0.00 in0.0 mm 0.00 in/hr0.0 mm/hr 0.00 in0.0 mm
08:31 AM 30.6°F-0.8°C 14.5°F-9.7°C 51% Calm Calm 2.7 mph4.3 kmh 25.10 in850.0 mb 0.00 in0.0 mm 0.00 in/hr0.0 mm/hr 0.00 in0.0 mm
08:26 AM 29.7°F-1.3°C 13.8°F-10.1°C 51% 2.0 mph WSW3.2 kmh WSW 4.0 mph6.4 kmh 25.10 in850.0 mb 0.00 in0.0 mm 0.00 in/hr0.0 mm/hr 0.00 in0.0 mm
08:21 AM 29.5°F-1.4°C 13.6°F-10.2°C 51% 1.0 mph WSW1.6 kmh WSW 4.0 mph6.4 kmh 25.10 in850.0 mb 0.00 in0.0 mm 0.00 in/hr0.0 mm/hr 0.00 in0.0 mm
08:16 AM 29.5°F-1.4°C 13.1°F-10.5°C 50% 1.0 mph WSW1.6 kmh WSW 3.6 mph5.8 kmh 25.10 in850.0 mb 0.00 in0.0 mm 0.00 in/hr0.0 mm/hr 0.00 in0.0 mm
08:11 AM 29.7°F-1.3°C 12.9°F-10.6°C 49% 2.0 mph WSW3.2 kmh WSW 4.0 mph6.4 kmh 25.10 in850.0 mb 0.00 in0.0 mm 0.00 in/hr0.0 mm/hr 0.00 in0.0 mm
08:06 AM 30.2°F-1.0°C 12.9°F-10.6°C 48% 1.0 mph WSW1.6 kmh WSW 4.5 mph7.2 kmh 25.10 in850.0 mb 0.00 in0.0 mm 0.00 in/hr0.0 mm/hr 0.00 in0.0 mm
08:01 AM 31.3°F-0.4°C 13.5°F-10.3°C 47% Calm Calm -- 25.10 in850.0 mb 0.00 in0.0 mm 0.00 in/hr0.0 mm/hr 0.00 in0.0 mm
07:56 AM 31.5°F-0.3°C 14.0°F-10.0°C 48% 2.0 mph WSW3.2 kmh WSW 4.0 mph6.4 kmh 25.10 in850.0 mb 0.00 in0.0 mm 0.00 in/hr0.0 mm/hr 0.00 in0.0 mm
07:51 AM 30.2°F-1.0°C 13.3°F-10.4°C 49% 1.0 mph WSW1.6 kmh WSW 4.0 mph6.4 kmh 25.10 in850.0 mb 0.00 in0.0 mm 0.00 in/hr0.0 mm/hr 0.00 in0.0 mm
07:46 AM 29.5°F-1.4°C 12.7°F-10.7°C 49% Calm Calm 4.5 mph7.2 kmh 25.10 in850.0 mb 0.00 in0.0 mm 0.00 in/hr0.0 mm/hr 0.00 in0.0 mm
07:41 AM 28.4°F-2.0°C 13.1°F-10.5°C 52% Calm Calm -- 25.10 in850.0 mb 0.00 in0.0 mm 0.00 in/hr0.0 mm/hr 0.00 in0.0 mm
07:36 AM 27.5°F-2.5°C 12.2°F-11.0°C 52% Calm Calm -- 25.10 in850.0 mb 0.00 in0.0 mm 0.00 in/hr0.0 mm/hr 0.00 in0.0 mm
07:31 AM 27.5°F-2.5°C 12.2°F-11.0°C 52% Calm Calm -- 25.10 in850.0 mb 0.00 in0.0 mm 0.00 in/hr0.0 mm/hr 0.00 in0.0 mm
07:26 AM 27.3°F-2.6°C 12.6°F-10.8°C 53% Calm Calm -- 25.10 in850.0 mb 0.00 in0.0 mm 0.00 in/hr0.0 mm/hr 0.00 in0.0 mm
07:21 AM 27.7°F-2.4°C 13.3°F-10.4°C 54% Calm Calm -- 25.10 in850.0 mb 0.00 in0.0 mm 0.00 in/hr0.0 mm/hr 0.00 in0.0 mm
07:16 AM 26.2°F-3.2°C 11.8°F-11.2°C 54% Calm Calm -- 25.10 in850.0 mb 0.00 in0.0 mm 0.00 in/hr0.0 mm/hr 0.00 in0.0 mm
07:11 AM 25.2°F-3.8°C 10.4°F-12.0°C 53% Calm Calm 3.6 mph5.8 kmh 25.10 in850.0 mb 0.00 in0.0 mm 0.00 in/hr0.0 mm/hr 0.00 in0.0 mm
07:06 AM 25.3°F-3.7°C 10.2°F-12.1°C 52% Calm Calm -- 25.10 in850.0 mb 0.00 in0.0 mm 0.00 in/hr0.0 mm/hr 0.00 in0.0 mm
07:01 AM 26.1°F-3.3°C 10.9°F-11.7°C 52% Calm Calm -- 25.10 in850.0 mb 0.00 in0.0 mm 0.00 in/hr0.0 mm/hr 0.00 in0.0 mm
06:56 AM 27.1°F-2.7°C 11.8°F-11.2°C 52% Calm Calm -- 25.10 in850.0 mb 0.00 in0.0 mm 0.00 in/hr0.0 mm/hr 0.00 in0.0 mm
06:51 AM 27.9°F-2.3°C 12.9°F-10.6°C 53% Calm Calm -- 25.10 in850.0 mb 0.00 in0.0 mm 0.00 in/hr0.0 mm/hr 0.00 in0.0 mm
06:46 AM 26.1°F-3.3°C 11.3°F-11.5°C 53% Calm Calm -- 25.10 in850.0 mb 0.00 in0.0 mm 0.00 in/hr0.0 mm/hr 0.00 in0.0 mm
06:41 AM 26.2°F-3.2°C 11.8°F-11.2°C 54% Calm Calm -- 25.10 in850.0 mb 0.00 in0.0 mm 0.00 in/hr0.0 mm/hr 0.00 in0.0 mm
06:36 AM 26.1°F-3.3°C 11.7°F-11.3°C 54% Calm Calm -- 25.10 in850.0 mb 0.00 in0.0 mm 0.00 in/hr0.0 mm/hr 0.00 in0.0 mm
06:31 AM 25.3°F-3.7°C 10.6°F-11.9°C 53% Calm Calm -- 25.10 in850.0 mb 0.00 in0.0 mm 0.00 in/hr0.0 mm/hr 0.00 in0.0 mm
06:26 AM 24.6°F-4.1°C 9.5°F-12.5°C 52% Calm Calm -- 25.10 in850.0 mb 0.00 in0.0 mm 0.00 in/hr0.0 mm/hr 0.00 in0.0 mm
06:21 AM 25.5°F-3.6°C 9.9°F-12.3°C 51% Calm Calm 3.6 mph5.8 kmh 25.10 in850.0 mb 0.00 in0.0 mm 0.00 in/hr0.0 mm/hr 0.00 in0.0 mm
06:16 AM 26.2°F-3.2°C 10.2°F-12.1°C 50% 1.0 mph WSW1.6 kmh WSW 3.6 mph5.8 kmh 25.10 in850.0 mb 0.00 in0.0 mm 0.00 in/hr0.0 mm/hr 0.00 in0.0 mm
06:11 AM 27.5°F-2.5°C 10.9°F-11.7°C 49% 1.0 mph SW1.6 kmh SW 4.9 mph7.9 kmh 25.10 in850.0 mb 0.00 in0.0 mm 0.00 in/hr0.0 mm/hr 0.00 in0.0 mm
06:06 AM 28.6°F-1.9°C 12.7°F-10.7°C 51% 2.0 mph SSW3.2 kmh SSW 4.5 mph7.2 kmh 25.10 in850.0 mb 0.00 in0.0 mm 0.00 in/hr0.0 mm/hr 0.00 in0.0 mm
06:01 AM 27.5°F-2.5°C 11.3°F-11.5°C 50% 2.0 mph S3.2 kmh S 4.5 mph7.2 kmh 25.10 in850.0 mb 0.00 in0.0 mm 0.00 in/hr0.0 mm/hr 0.00 in0.0 mm
05:56 AM 27.7°F-2.4°C 12.0°F-11.1°C 51% Calm Calm 3.1 mph5.0 kmh 25.10 in850.0 mb 0.00 in0.0 mm 0.00 in/hr0.0 mm/hr 0.00 in0.0 mm
05:51 AM 27.1°F-2.7°C 11.8°F-11.2°C 52% Calm Calm -- 25.07 in849.0 mb 0.00 in0.0 mm 0.00 in/hr0.0 mm/hr 0.00 in0.0 mm
05:46 AM 26.1°F-3.3°C 10.9°F-11.7°C 52% Calm Calm -- 25.07 in849.0 mb 0.00 in0.0 mm 0.00 in/hr0.0 mm/hr 0.00 in0.0 mm
05:41 AM 26.1°F-3.3°C 10.9°F-11.7°C 52% Calm Calm -- 25.07 in849.0 mb 0.00 in0.0 mm 0.00 in/hr0.0 mm/hr 0.00 in0.0 mm
05:36 AM 26.6°F-3.0°C 11.3°F-11.5°C 52% Calm Calm -- 25.07 in849.0 mb 0.00 in0.0 mm 0.00 in/hr0.0 mm/hr 0.00 in0.0 mm
05:31 AM 26.6°F-3.0°C 11.3°F-11.5°C 52% Calm Calm -- 25.07 in849.0 mb 0.00 in0.0 mm 0.00 in/hr0.0 mm/hr 0.00 in0.0 mm
05:26 AM 26.6°F-3.0°C 11.3°F-11.5°C 52% Calm Calm -- 25.07 in849.0 mb 0.00 in0.0 mm 0.00 in/hr0.0 mm/hr 0.00 in0.0 mm
05:21 AM 25.9°F-3.4°C 10.2°F-12.1°C 51% Calm Calm 3.6 mph5.8 kmh 25.07 in849.0 mb 0.00 in0.0 mm 0.00 in/hr0.0 mm/hr 0.00 in0.0 mm
05:16 AM 26.1°F-3.3°C 9.5°F-12.5°C 49% Calm Calm -- 25.07 in849.0 mb 0.00 in0.0 mm 0.00 in/hr0.0 mm/hr 0.00 in0.0 mm
05:11 AM 27.5°F-2.5°C 10.9°F-11.7°C 49% Calm Calm -- 25.07 in849.0 mb 0.00 in0.0 mm 0.00 in/hr0.0 mm/hr 0.00 in0.0 mm
05:06 AM 28.0°F-2.2°C 10.9°F-11.7°C 48% Calm Calm -- 25.07 in849.0 mb 0.00 in0.0 mm 0.00 in/hr0.0 mm/hr 0.00 in0.0 mm
05:01 AM 28.2°F-2.1°C 11.1°F-11.6°C 48% Calm Calm -- 25.07 in849.0 mb 0.00 in0.0 mm 0.00 in/hr0.0 mm/hr 0.00 in0.0 mm
04:56 AM 28.6°F-1.9°C 11.8°F-11.2°C 49% Calm Calm -- 25.07 in849.0 mb 0.00 in0.0 mm 0.00 in/hr0.0 mm/hr 0.00 in0.0 mm
04:51 AM 28.2°F-2.1°C 11.5°F-11.4°C 49% Calm Calm -- 25.07 in849.0 mb 0.00 in0.0 mm 0.00 in/hr0.0 mm/hr 0.00 in0.0 mm
04:46 AM 28.8°F-1.8°C 12.9°F-10.6°C 51% Calm Calm 4.9 mph7.9 kmh 25.07 in849.0 mb 0.00 in0.0 mm 0.00 in/hr0.0 mm/hr 0.00 in0.0 mm
04:41 AM 27.9°F-2.3°C 12.0°F-11.1°C 51% Calm Calm 3.6 mph5.8 kmh 25.07 in849.0 mb 0.00 in0.0 mm 0.00 in/hr0.0 mm/hr 0.00 in0.0 mm
04:36 AM 27.5°F-2.5°C 12.2°F-11.0°C 52% Calm Calm 3.6 mph5.8 kmh 25.07 in849.0 mb 0.00 in0.0 mm 0.00 in/hr0.0 mm/hr 0.00 in0.0 mm
04:31 AM 26.6°F-3.0°C 10.9°F-11.7°C 51% Calm Calm -- 25.07 in849.0 mb 0.00 in0.0 mm 0.00 in/hr0.0 mm/hr 0.00 in0.0 mm
04:26 AM 26.2°F-3.2°C 9.3°F-12.6°C 48% Calm Calm -- 25.07 in849.0 mb 0.00 in0.0 mm 0.00 in/hr0.0 mm/hr 0.00 in0.0 mm
04:21 AM 26.6°F-3.0°C 8.2°F-13.2°C 45% 2.0 mph SSE3.2 kmh SSE 4.0 mph6.4 kmh 25.07 in849.0 mb 0.00 in0.0 mm 0.00 in/hr0.0 mm/hr 0.00 in0.0 mm
04:16 AM 28.9°F-1.7°C 10.8°F-11.8°C 46% 3.0 mph SSE4.8 kmh SSE 4.5 mph7.2 kmh 25.07 in849.0 mb 0.00 in0.0 mm 0.00 in/hr0.0 mm/hr 0.00 in0.0 mm
04:11 AM 30.4°F-0.9°C 12.6°F-10.8°C 47% 2.0 mph SSE3.2 kmh SSE 4.9 mph7.9 kmh 25.07 in849.0 mb 0.00 in0.0 mm 0.00 in/hr0.0 mm/hr 0.00 in0.0 mm
04:06 AM 29.7°F-1.3°C 11.8°F-11.2°C 47% 2.0 mph SSE3.2 kmh SSE 4.5 mph7.2 kmh 25.07 in849.0 mb 0.00 in0.0 mm 0.00 in/hr0.0 mm/hr 0.00 in0.0 mm
04:01 AM 28.9°F-1.7°C 11.7°F-11.3°C 48% 2.0 mph SSE3.2 kmh SSE 4.5 mph7.2 kmh 25.07 in849.0 mb 0.00 in0.0 mm 0.00 in/hr0.0 mm/hr 0.00 in0.0 mm
03:56 AM 28.4°F-2.0°C 11.3°F-11.5°C 48% 1.0 mph SSE1.6 kmh SSE 4.9 mph7.9 kmh 25.07 in849.0 mb 0.00 in0.0 mm 0.00 in/hr0.0 mm/hr 0.00 in0.0 mm
03:51 AM 27.1°F-2.7°C 10.6°F-11.9°C 49% Calm Calm -- 25.07 in849.0 mb 0.00 in0.0 mm 0.00 in/hr0.0 mm/hr 0.00 in0.0 mm
03:46 AM 26.8°F-2.9°C 9.3°F-12.6°C 47% Calm Calm -- 25.07 in849.0 mb 0.00 in0.0 mm 0.00 in/hr0.0 mm/hr 0.00 in0.0 mm
03:41 AM 27.0°F-2.8°C 8.4°F-13.1°C 45% Calm Calm -- 25.07 in849.0 mb 0.00 in0.0 mm 0.00 in/hr0.0 mm/hr 0.00 in0.0 mm
03:36 AM 27.9°F-2.3°C 9.3°F-12.6°C 45% Calm Calm -- 25.07 in849.0 mb 0.00 in0.0 mm 0.00 in/hr0.0 mm/hr 0.00 in0.0 mm
03:31 AM 28.6°F-1.9°C 9.5°F-12.5°C 44% Calm Calm -- 25.07 in849.0 mb 0.00 in0.0 mm 0.00 in/hr0.0 mm/hr 0.00 in0.0 mm
03:26 AM 29.1°F-1.6°C 10.0°F-12.2°C 44% Calm Calm 4.0 mph6.4 kmh 25.07 in849.0 mb 0.00 in0.0 mm 0.00 in/hr0.0 mm/hr 0.00 in0.0 mm
03:21 AM 28.9°F-1.7°C 9.3°F-12.6°C 43% Calm Calm 3.1 mph5.0 kmh 25.07 in849.0 mb 0.00 in0.0 mm 0.00 in/hr0.0 mm/hr 0.00 in0.0 mm
03:16 AM 29.7°F-1.3°C 9.9°F-12.3°C 43% Calm Calm -- 25.07 in849.0 mb 0.00 in0.0 mm 0.00 in/hr0.0 mm/hr 0.00 in0.0 mm
03:11 AM 30.6°F-0.8°C 10.8°F-11.8°C 43% Calm Calm -- 25.07 in849.0 mb 0.00 in0.0 mm 0.00 in/hr0.0 mm/hr 0.00 in0.0 mm
03:06 AM 30.4°F-0.9°C 10.6°F-11.9°C 43% Calm Calm -- 25.07 in849.0 mb 0.00 in0.0 mm 0.00 in/hr0.0 mm/hr 0.00 in0.0 mm
03:01 AM 30.9°F-0.6°C 11.7°F-11.3°C 44% Calm Calm 3.6 mph5.8 kmh 25.07 in849.0 mb 0.00 in0.0 mm 0.00 in/hr0.0 mm/hr 0.00 in0.0 mm
02:56 AM 30.4°F-0.9°C 11.1°F-11.6°C 44% Calm Calm 3.6 mph5.8 kmh 25.07 in849.0 mb 0.00 in0.0 mm 0.00 in/hr0.0 mm/hr 0.00 in0.0 mm
02:51 AM 30.6°F-0.8°C 11.3°F-11.5°C 44% Calm Calm -- 25.07 in849.0 mb 0.00 in0.0 mm 0.00 in/hr0.0 mm/hr 0.00 in0.0 mm
02:46 AM 30.2°F-1.0°C 10.9°F-11.7°C 44% Calm Calm 2.7 mph4.3 kmh 25.07 in849.0 mb 0.00 in0.0 mm 0.00 in/hr0.0 mm/hr 0.00 in0.0 mm
02:41 AM 29.5°F-1.4°C 9.9°F-12.3°C 43% Calm Calm -- 25.07 in849.0 mb 0.00 in0.0 mm 0.00 in/hr0.0 mm/hr 0.00 in0.0 mm
02:36 AM 30.4°F-0.9°C 10.6°F-11.9°C 43% Calm Calm -- 25.07 in849.0 mb 0.00 in0.0 mm 0.00 in/hr0.0 mm/hr 0.00 in0.0 mm
02:31 AM 30.4°F-0.9°C 10.6°F-11.9°C 43% 2.0 mph SSE3.2 kmh SSE 3.6 mph5.8 kmh 25.07 in849.0 mb 0.00 in0.0 mm 0.00 in/hr0.0 mm/hr 0.00 in0.0 mm
02:26 AM 30.4°F-0.9°C 10.6°F-11.9°C 43% 2.0 mph SSE3.2 kmh SSE 3.6 mph5.8 kmh 25.07 in849.0 mb 0.00 in0.0 mm 0.00 in/hr0.0 mm/hr 0.00 in0.0 mm
02:21 AM 30.2°F-1.0°C 9.9°F-12.3°C 42% 2.0 mph SSE3.2 kmh SSE 3.6 mph5.8 kmh 25.07 in849.0 mb 0.00 in0.0 mm 0.00 in/hr0.0 mm/hr 0.00 in0.0 mm
02:16 AM 31.1°F-0.5°C 10.8°F-11.8°C 42% 3.0 mph SSE4.8 kmh SSE 4.0 mph6.4 kmh 25.07 in849.0 mb 0.00 in0.0 mm 0.00 in/hr0.0 mm/hr 0.00 in0.0 mm
02:11 AM 31.3°F-0.4°C 10.9°F-11.7°C 42% 3.0 mph SSE4.8 kmh SSE 4.0 mph6.4 kmh 25.07 in849.0 mb 0.00 in0.0 mm 0.00 in/hr0.0 mm/hr 0.00 in0.0 mm
02:06 AM 30.7°F-0.7°C 10.4°F-12.0°C 42% 3.0 mph SSE4.8 kmh SSE 4.5 mph7.2 kmh 25.07 in849.0 mb 0.00 in0.0 mm 0.00 in/hr0.0 mm/hr 0.00 in0.0 mm
02:01 AM 30.7°F-0.7°C 10.4°F-12.0°C 42% 4.0 mph SSE6.4 kmh SSE 4.9 mph7.9 kmh 25.07 in849.0 mb 0.00 in0.0 mm 0.00 in/hr0.0 mm/hr 0.00 in0.0 mm
01:56 AM 30.9°F-0.6°C 10.6°F-11.9°C 42% 4.0 mph SSE6.4 kmh SSE 4.9 mph7.9 kmh 25.07 in849.0 mb 0.00 in0.0 mm 0.00 in/hr0.0 mm/hr 0.00 in0.0 mm
01:50 AM 30.9°F-0.6°C 10.6°F-11.9°C 42% 3.0 mph SSE4.8 kmh SSE 4.9 mph7.9 kmh 25.07 in849.0 mb 0.00 in0.0 mm 0.00 in/hr0.0 mm/hr 0.00 in0.0 mm
01:45 AM 31.3°F-0.4°C 10.9°F-11.7°C 42% 1.0 mph SSE1.6 kmh SSE 4.5 mph7.2 kmh 25.07 in849.0 mb 0.00 in0.0 mm 0.00 in/hr0.0 mm/hr 0.00 in0.0 mm
01:40 AM 30.6°F-0.8°C 10.2°F-12.1°C 42% 1.0 mph SSE1.6 kmh SSE 3.6 mph5.8 kmh 25.07 in849.0 mb 0.00 in0.0 mm 0.00 in/hr0.0 mm/hr 0.00 in0.0 mm
01:35 AM 30.6°F-0.8°C 10.2°F-12.1°C 42% 1.0 mph SSE1.6 kmh SSE 3.1 mph5.0 kmh 25.07 in849.0 mb 0.00 in0.0 mm 0.00 in/hr0.0 mm/hr 0.00 in0.0 mm
01:30 AM 30.6°F-0.8°C 10.2°F-12.1°C 42% 1.0 mph SSE1.6 kmh SSE 4.0 mph6.4 kmh 25.07 in849.0 mb 0.00 in0.0 mm 0.00 in/hr0.0 mm/hr 0.00 in0.0 mm
01:25 AM 31.3°F-0.4°C 10.9°F-11.7°C 42% Calm Calm -- 25.07 in849.0 mb 0.00 in0.0 mm 0.00 in/hr0.0 mm/hr 0.00 in0.0 mm
01:20 AM 31.3°F-0.4°C 10.9°F-11.7°C 42% 1.0 mph SSE1.6 kmh SSE 3.1 mph5.0 kmh 25.07 in849.0 mb 0.00 in0.0 mm 0.00 in/hr0.0 mm/hr 0.00 in0.0 mm
01:15 AM 30.7°F-0.7°C 10.4°F-12.0°C 42% 1.0 mph SSE1.6 kmh SSE 3.6 mph5.8 kmh 25.07 in849.0 mb 0.00 in0.0 mm 0.00 in/hr0.0 mm/hr 0.00 in0.0 mm
01:10 AM 30.6°F-0.8°C 10.2°F-12.1°C 42% Calm Calm -- 25.07 in849.0 mb 0.00 in0.0 mm 0.00 in/hr0.0 mm/hr 0.00 in0.0 mm
01:05 AM 30.6°F-0.8°C 9.7°F-12.4°C 41% Calm Calm -- 25.10 in850.0 mb 0.00 in0.0 mm 0.00 in/hr0.0 mm/hr 0.00 in0.0 mm
01:00 AM 31.1°F-0.5°C 9.7°F-12.4°C 40% Calm Calm -- 25.10 in850.0 mb 0.00 in0.0 mm 0.00 in/hr0.0 mm/hr 0.00 in0.0 mm
12:55 AM 31.8°F-0.1°C 10.2°F-12.1°C 40% Calm Calm -- 25.10 in850.0 mb 0.00 in0.0 mm 0.00 in/hr0.0 mm/hr 0.00 in0.0 mm
12:50 AM 32.0°F0.0°C 9.3°F-12.6°C 38% Calm Calm -- 25.10 in850.0 mb 0.00 in0.0 mm 0.00 in/hr0.0 mm/hr 0.00 in0.0 mm
12:45 AM 33.1°F0.6°C 9.1°F-12.7°C 36% 1.0 mph SSE1.6 kmh SSE 2.7 mph4.3 kmh 25.10 in850.0 mb 0.00 in0.0 mm 0.00 in/hr0.0 mm/hr 0.00 in0.0 mm
12:40 AM 33.3°F0.7°C 9.9°F-12.3°C 37% 2.0 mph SSE3.2 kmh SSE 3.1 mph5.0 kmh 25.10 in850.0 mb 0.00 in0.0 mm 0.00 in/hr0.0 mm/hr 0.00 in0.0 mm
12:35 AM 33.1°F0.6°C 9.7°F-12.4°C 37% 2.0 mph SSE3.2 kmh SSE 3.1 mph5.0 kmh 25.10 in850.0 mb 0.00 in0.0 mm 0.00 in/hr0.0 mm/hr 0.00 in0.0 mm
12:30 AM 33.3°F0.7°C 9.1°F-12.7°C 36% 2.0 mph SSE3.2 kmh SSE 3.1 mph5.0 kmh 25.10 in850.0 mb 0.00 in0.0 mm 0.00 in/hr0.0 mm/hr 0.00 in0.0 mm
12:25 AM 33.4°F0.8°C 9.3°F-12.6°C 36% 1.0 mph SSE1.6 kmh SSE 3.1 mph5.0 kmh 25.10 in850.0 mb 0.00 in0.0 mm 0.00 in/hr0.0 mm/hr 0.00 in0.0 mm
12:20 AM 33.4°F0.8°C 8.8°F-12.9°C 35% 1.0 mph SSE1.6 kmh SSE 3.1 mph5.0 kmh 25.10 in850.0 mb 0.00 in0.0 mm 0.00 in/hr0.0 mm/hr 0.00 in0.0 mm
12:15 AM 33.4°F0.8°C 8.8°F-12.9°C 35% 1.0 mph SSE1.6 kmh SSE 3.6 mph5.8 kmh 25.10 in850.0 mb 0.00 in0.0 mm 0.00 in/hr0.0 mm/hr 0.00 in0.0 mm
12:10 AM 33.4°F0.8°C 8.8°F-12.9°C 35% 2.0 mph SSE3.2 kmh SSE 3.6 mph5.8 kmh 25.10 in850.0 mb 0.00 in0.0 mm 0.00 in/hr0.0 mm/hr 0.00 in0.0 mm
12:05 AM 33.4°F0.8°C 8.8°F-12.9°C 35% 2.0 mph SSE3.2 kmh SSE 3.6 mph5.8 kmh 25.10 in850.0 mb 0.00 in0.0 mm 0.00 in/hr0.0 mm/hr 0.00 in0.0 mm
12:00 AM 33.6°F0.9°C 7.7°F-13.5°C 33% 2.0 mph SSE3.2 kmh SSE 4.0 mph6.4 kmh 25.10 in850.0 mb 0.00 in0.0 mm 0.00 in/hr0.0 mm/hr 0.00 in0.0 mm